Time;durP1;ratioP1;P1;durP2;ratioP2;P2;SDS_P1;SDS_P2;PMS_P1;PMS_P2;Temp;Humidity;BMP_temperature;BMP_pressure;BME280_temperature;BME280_humidity;BME280_pressure;Samples;Min_cycle;Max_cycle;Signal;HPM_P1;HPM_P2
2021/05/16 00:00:35;;;;;;;3.53;1.00;;;;;;;10.03;100.00;97955.97;10503608;28;20628;-78
2021/05/16 00:05:54;;;;;;;4.23;1.10;;;;;;;10.03;100.00;97958.72;10502199;28;20210;-77
2021/05/16 00:11:13;;;;;;;1.10;0.60;;;;;;;9.97;100.00;97968.63;10502945;28;20210;-77
2021/05/16 00:16:32;;;;;;;0.90;0.57;;;;;;;9.97;100.00;97966.69;10502860;28;20186;-76
2021/05/16 00:21:51;;;;;;;2.07;0.97;;;;;;;9.93;100.00;97970.69;10502876;28;20183;-76
2021/05/16 00:27:10;;;;;;;3.57;1.13;;;;;;;9.87;100.00;97969.59;10502132;28;20222;-77
2021/05/16 00:32:29;;;;;;;0.80;0.50;;;;;;;9.87;100.00;97972.34;10500541;28;20202;-77
2021/05/16 00:37:48;;;;;;;1.00;0.60;;;;;;;9.84;100.00;97970.47;10502194;28;20545;-76
2021/05/16 00:43:07;;;;;;;1.20;1.00;;;;;;;9.90;100.00;97977.00;10502162;28;20661;-77
2021/05/16 00:48:27;;;;;;;0.90;0.60;;;;;;;9.83;100.00;97969.66;10484671;28;20167;-77
2021/05/16 00:53:46;;;;;;;1.00;0.60;;;;;;;9.83;100.00;97974.41;10501621;28;20249;-79
2021/05/16 00:59:05;;;;;;;1.77;0.60;;;;;;;9.87;100.00;97967.66;10500696;28;20183;-78
2021/05/16 01:04:25;;;;;;;1.10;0.67;;;;;;;9.84;100.00;97971.22;10499686;28;20187;-77
2021/05/16 01:09:44;;;;;;;1.00;0.80;;;;;;;9.82;100.00;97970.09;10500709;28;20297;-78
2021/05/16 01:15:04;;;;;;;1.93;1.00;;;;;;;9.74;100.00;97954.94;10500485;28;20179;-77
2021/05/16 01:20:28;;;;;;;3.53;0.93;;;;;;;9.64;100.00;97961.41;10499352;28;20174;-78
2021/05/16 01:25:48;;;;;;;1.20;0.70;;;;;;;9.54;100.00;97956.88;10499069;28;20170;-78
2021/05/16 01:31:07;;;;;;;1.03;0.80;;;;;;;9.65;100.00;97965.69;10499733;28;20210;-78
2021/05/16 01:36:27;;;;;;;1.00;0.67;;;;;;;9.62;100.00;97969.28;10498424;28;20186;-77
2021/05/16 01:41:46;;;;;;;1.00;0.87;;;;;;;9.60;100.00;97963.44;10499467;28;20226;-77
2021/05/16 01:47:06;;;;;;;0.80;0.60;;;;;;;9.53;100.00;97961.59;10498184;28;20190;-76
2021/05/16 01:52:29;;;;;;;1.20;0.70;;;;;;;9.61;100.00;97967.75;10498550;28;20285;-78
2021/05/16 01:57:49;;;;;;;1.57;1.30;;;;;;;9.54;100.00;97976.88;10498988;28;20198;-77
2021/05/16 02:03:08;;;;;;;1.00;0.73;;;;;;;9.50;100.00;97972.63;10497656;28;20183;-76
2021/05/16 02:08:28;;;;;;;1.80;1.00;;;;;;;9.47;100.00;97981.69;10497882;28;20243;-78
2021/05/16 02:13:47;;;;;;;7.03;1.10;;;;;;;9.43;100.00;97983.75;10498376;28;20174;-78
2021/05/16 02:19:06;;;;;;;1.23;1.10;;;;;;;9.38;100.00;97997.16;10496965;28;20179;-77
2021/05/16 02:24:25;;;;;;;1.40;1.30;;;;;;;9.34;100.00;97997.22;10498067;28;20162;-79
2021/05/16 02:29:43;;;;;;;1.80;1.10;;;;;;;9.32;100.00;98004.31;10497269;28;20222;-79
2021/05/16 02:35:05;;;;;;;1.53;1.43;;;;;;;9.31;100.00;98014.50;10496530;28;20175;-77
2021/05/16 02:40:24;;;;;;;2.80;1.17;;;;;;;9.16;100.00;98004.97;10497854;28;20207;-77
2021/05/16 02:45:44;;;;;;;2.40;1.10;;;;;;;9.15;100.00;98008.13;10497518;28;20179;-77
2021/05/16 02:51:03;;;;;;;2.67;0.97;;;;;;;9.14;100.00;98007.34;10495859;28;20657;-78
2021/05/16 02:56:22;;;;;;;0.90;0.60;;;;;;;9.00;100.00;98015.03;10497559;28;20674;-77
2021/05/16 03:01:41;;;;;;;0.90;0.60;;;;;;;8.93;100.00;98006.88;10496194;28;20202;-78
2021/05/16 03:07:01;;;;;;;2.23;1.47;;;;;;;8.90;100.00;97994.75;10497270;28;20247;-78
2021/05/16 03:12:19;;;;;;;3.30;1.53;;;;;;;8.77;100.00;97991.06;10496486;28;20210;-77
2021/05/16 03:17:38;;;;;;;8.67;1.60;;;;;;;8.61;100.00;97997.56;10495650;28;20257;-77
2021/05/16 03:22:57;;;;;;;1.60;1.20;;;;;;;8.56;100.00;98007.00;10503510;28;20171;-77
2021/05/16 03:28:16;;;;;;;1.30;1.20;;;;;;;8.66;100.00;98016.28;10503500;28;20234;-77
2021/05/16 03:33:35;;;;;;;2.63;1.70;;;;;;;8.68;100.00;98008.41;10503590;28;20183;-77
2021/05/16 03:38:54;;;;;;;1.23;1.13;;;;;;;8.78;100.00;98011.81;10504366;28;20198;-77
2021/05/16 03:44:14;;;;;;;6.20;1.30;;;;;;;8.79;100.00;98007.88;10504319;28;20179;-79
2021/05/16 03:49:33;;;;;;;2.30;1.13;;;;;;;8.77;100.00;98010.25;10501623;28;20210;-77
2021/05/16 03:54:52;;;;;;;1.67;1.40;;;;;;;8.80;100.00;98003.91;10502914;28;20617;-78
2021/05/16 04:00:12;;;;;;;1.43;1.33;;;;;;;8.81;100.00;98010.94;10502672;28;20204;-77
2021/05/16 04:05:32;;;;;;;3.20;2.53;;;;;;;8.87;100.00;98003.84;10502107;28;20183;-78
2021/05/16 04:10:51;;;;;;;2.53;2.27;;;;;;;8.93;100.00;98004.13;10502858;28;20209;-77
2021/05/16 04:16:09;;;;;;;4.70;1.77;;;;;;;8.95;100.00;98012.72;10503005;28;20637;-77
2021/05/16 04:21:29;;;;;;;1.60;1.50;;;;;;;8.93;100.00;98015.88;10501772;28;20166;-76
2021/05/16 04:26:48;;;;;;;3.20;1.93;;;;;;;8.99;100.00;98008.75;10502300;28;20211;-78
2021/05/16 04:32:07;;;;;;;2.10;1.90;;;;;;;9.02;100.00;98005.19;10499719;28;20669;-76
2021/05/16 04:37:26;;;;;;;1.83;1.73;;;;;;;9.09;100.00;98013.31;10501568;28;20811;-76
2021/05/16 04:42:46;;;;;;;2.80;2.20;;;;;;;9.27;100.00;98015.75;10502139;28;20171;-77
2021/05/16 04:48:06;;;;;;;6.63;1.57;;;;;;;9.31;100.00;98014.50;10499441;28;20170;-76
2021/05/16 04:53:28;;;;;;;1.47;1.37;;;;;;;9.23;100.00;98021.31;10500088;28;20207;-77
2021/05/16 04:58:47;;;;;;;2.07;1.30;;;;;;;9.38;100.00;98014.41;10501530;28;20179;-79
2021/05/16 05:04:06;;;;;;;1.50;1.37;;;;;;;9.49;100.00;98015.00;10500148;28;20179;-79
2021/05/16 05:09:25;;;;;;;4.60;2.83;;;;;;;9.63;100.00;98009.28;10501089;28;20206;-77
2021/05/16 05:14:44;;;;;;;1.37;1.23;;;;;;;9.73;100.00;98006.34;10499638;28;20175;-79
2021/05/16 05:20:03;;;;;;;1.83;1.50;;;;;;;9.81;100.00;98013.25;10499413;28;20641;-80
2021/05/16 05:25:23;;;;;;;5.00;1.90;;;;;;;9.77;100.00;98012.56;10500114;28;20174;-78
2021/05/16 05:30:41;;;;;;;1.30;1.10;;;;;;;9.82;100.00;98009.31;10499309;28;20226;-78
2021/05/16 05:36:00;;;;;;;1.17;0.90;;;;;;;9.94;100.00;98010.66;10498523;28;20182;-78
2021/05/16 05:41:19;;;;;;;6.17;1.20;;;;;;;10.03;100.00;98005.44;10484419;28;20696;-78
2021/05/16 05:46:38;;;;;;;1.23;1.13;;;;;;;10.10;100.00;98010.78;10498749;28;20179;-78
2021/05/16 05:52:00;;;;;;;1.67;1.30;;;;;;;10.08;100.00;98018.69;10498841;28;20241;-77
2021/05/16 05:57:19;;;;;;;1.70;1.03;;;;;;;10.24;100.00;98019.53;10499090;28;20529;-78
2021/05/16 06:02:37;;;;;;;0.97;0.80;;;;;;;10.37;100.00;98009.47;10497777;28;20261;-79
2021/05/16 06:07:57;;;;;;;1.03;0.77;;;;;;;10.40;100.00;98009.41;10498730;28;20637;-78
2021/05/16 06:13:16;;;;;;;0.90;0.60;;;;;;;10.35;100.00;98015.38;10497889;28;20238;-78
2021/05/16 06:18:36;;;;;;;0.90;0.50;;;;;;;10.28;100.00;98016.72;10497157;28;20170;-78
2021/05/16 06:24:10;;;;;;;0.93;0.60;;;;;;;10.38;100.00;98014.56;10498126;28;20625;-78
2021/05/16 06:29:29;;;;;;;8.33;1.90;;;;;;;10.26;100.00;98022.66;10497471;28;20685;-76
2021/05/16 06:34:48;;;;;;;3.73;0.90;;;;;;;10.36;100.00;98018.94;10496649;28;20601;-78
2021/05/16 06:40:08;;;;;;;1.00;0.90;;;;;;;10.65;100.00;98009.66;10497734;28;20198;-76
2021/05/16 06:45:27;;;;;;;1.23;0.80;;;;;;;10.76;100.00;98012.19;10497651;28;20166;-77
2021/05/16 06:50:46;;;;;;;1.23;0.80;;;;;;;11.01;100.00;98006.91;10495868;28;20210;-78
2021/05/16 06:56:08;;;;;;;8.37;1.30;;;;;;;11.05;100.00;98002.09;10496941;28;20183;-77
2021/05/16 07:01:27;;;;;;;1.57;0.70;;;;;;;11.35;100.00;98005.31;10496212;28;20258;-76
2021/05/16 07:06:46;;;;;;;1.07;0.73;;;;;;;11.33;100.00;97997.50;10496302;28;20178;-77
2021/05/16 07:12:05;;;;;;;5.80;0.80;;;;;;;11.53;100.00;98003.69;10495651;28;20206;-77
2021/05/16 07:17:24;;;;;;;0.90;0.60;;;;;;;11.69;100.00;98008.44;10494808;28;20182;-77
2021/05/16 07:22:43;;;;;;;0.90;0.60;;;;;;;11.65;100.00;98013.25;10495959;28;20179;-76
2021/05/16 07:28:02;;;;;;;0.80;0.50;;;;;;;11.22;100.00;98009.97;10496418;28;20227;-76
2021/05/16 07:33:22;;;;;;;1.03;0.93;;;;;;;11.23;100.00;98008.72;10494964;28;20202;-76
2021/05/16 07:38:41;;;;;;;7.07;1.10;;;;;;;11.22;100.00;98007.19;10496457;28;20206;-76
2021/05/16 07:44:00;;;;;;;0.80;0.50;;;;;;;11.16;100.00;98006.16;10496613;28;20174;-77
2021/05/16 07:49:21;;;;;;;1.30;0.87;;;;;;;11.14;100.00;98008.56;10495004;28;20203;-76
2021/05/16 07:54:40;;;;;;;0.80;0.50;;;;;;;10.84;100.00;98008.09;10496388;28;20661;-77
2021/05/16 07:59:59;;;;;;;1.00;0.60;;;;;;;10.66;100.00;98011.19;10496277;28;20183;-77
2021/05/16 08:05:18;;;;;;;1.53;0.67;;;;;;;10.56;100.00;98017.72;10495011;28;20171;-77
2021/05/16 08:10:37;;;;;;;0.80;0.40;;;;;;;10.60;100.00;98020.38;10502589;28;20195;-77
2021/05/16 08:15:56;;;;;;;1.03;0.73;;;;;;;10.69;100.00;98002.09;10502136;28;20166;-77
2021/05/16 08:21:15;;;;;;;0.80;0.50;;;;;;;10.85;100.00;98015.91;10501714;28;20163;-78
2021/05/16 08:26:35;;;;;;;1.00;0.70;;;;;;;10.89;100.00;98016.63;10502518;28;20226;-77
2021/05/16 08:31:54;;;;;;;6.50;1.00;;;;;;;11.11;100.00;98026.69;10499859;28;20202;-78
2021/05/16 08:37:14;;;;;;;0.83;0.53;;;;;;;11.37;100.00;98011.94;10501108;28;20551;-77
2021/05/16 08:42:33;;;;;;;0.90;0.60;;;;;;;11.54;100.00;98010.75;10502266;28;20179;-77
2021/05/16 08:47:52;;;;;;;1.07;0.73;;;;;;;11.56;100.00;97994.59;10499743;28;20592;-78
2021/05/16 08:53:11;;;;;;;1.00;0.70;;;;;;;11.61;100.00;97998.78;10501246;28;20285;-78
2021/05/16 08:58:31;;;;;;;1.30;1.20;;;;;;;11.90;100.00;98013.38;10501194;28;20265;-76
2021/05/16 09:03:50;;;;;;;1.10;0.90;;;;;;;11.74;100.00;98013.41;10500073;28;20253;-77
2021/05/16 09:09:33;;;;;;;1.07;0.97;;;;;;;12.28;100.00;98004.84;10500818;28;20206;-76
2021/05/16 09:14:57;;;;;;;0.80;0.40;;;;;;;12.36;100.00;98005.44;10499774;28;20179;-79
2021/05/16 09:20:23;;;;;;;1.00;0.80;;;;;;;12.54;100.00;98008.47;10498858;28;20198;-78
2021/05/16 09:25:45;;;;;;;2.20;2.00;;;;;;;12.81;100.00;98012.38;10500427;28;20677;-79
2021/05/16 09:31:06;;;;;;;4.70;2.47;;;;;;;12.64;100.00;98005.38;10499866;28;20214;-79
2021/05/16 09:36:32;;;;;;;2.57;2.00;;;;;;;12.73;100.00;98014.56;10498521;28;20580;-79
2021/05/16 09:42:07;;;;;;;2.60;1.80;;;;;;;12.89;100.00;98008.22;10499273;28;20200;-78
2021/05/16 09:47:27;;;;;;;0.80;0.50;;;;;;;13.39;100.00;98000.72;10497703;28;20617;-76
2021/05/16 09:52:58;;;;;;;1.40;1.20;;;;;;;13.15;100.00;97984.94;10498373;28;20238;-76
2021/05/16 09:58:18;;;;;;;1.00;0.70;;;;;;;12.90;100.00;97991.22;10496926;28;20214;-76
2021/05/16 10:03:39;;;;;;;2.23;1.43;;;;;;;14.22;100.00;97986.03;10458492;28;20555;-76
2021/05/16 10:08:58;;;;;;;0.97;0.60;;;;;;;14.52;100.00;97990.88;10472003;28;20266;-77
2021/05/16 10:14:25;;;;;;;8.47;1.13;;;;;;;13.50;100.00;97967.22;10456831;28;20179;-75
2021/05/16 10:19:46;;;;;;;7.70;0.70;;;;;;;14.44;100.00;97954.38;10454115;28;20211;-78
2021/05/16 10:25:05;;;;;;;0.90;0.50;;;;;;;15.17;98.39;97945.22;10456484;28;20176;-78
2021/05/16 10:30:26;;;;;;;1.00;0.70;;;;;;;15.26;95.34;97931.41;10454539;28;20234;-76
2021/05/16 10:35:50;;;;;;;2.30;1.77;;;;;;;15.38;95.83;97934.06;10454857;28;20236;-77
2021/05/16 10:41:14;;;;;;;3.27;0.77;;;;;;;15.91;86.98;97938.16;10458760;28;20187;-78
2021/05/16 10:46:42;;;;;;;1.10;0.87;;;;;;;14.71;94.67;97937.16;10479598;28;20183;-75
2021/05/16 10:52:28;;;;;;;1.23;0.83;;;;;;;12.70;100.00;97959.47;10497010;28;20242;-81
2021/05/16 10:57:47;;;;;;;1.00;0.80;;;;;;;11.98;100.00;97938.38;10497361;28;20166;-78
2021/05/16 11:03:11;;;;;;;2.20;0.70;;;;;;;12.95;100.00;97923.66;10495653;28;20549;-76
2021/05/16 11:08:36;;;;;;;1.00;0.77;;;;;;;14.03;100.00;97909.66;10497230;28;20187;-77
2021/05/16 11:13:55;;;;;;;1.10;0.53;;;;;;;15.27;100.00;97897.69;10496904;28;20186;-76
2021/05/16 11:19:14;;;;;;;1.10;0.50;;;;;;;15.51;96.07;97893.13;10494241;28;20206;-78
2021/05/16 11:24:39;;;;;;;2.33;1.23;;;;;;;16.15;93.46;97876.03;10496422;28;20167;-79
2021/05/16 11:30:08;;;;;;;2.40;0.97;;;;;;;17.59;95.60;97874.22;10495752;28;20219;-79
2021/05/16 11:35:27;;;;;;;2.00;0.90;;;;;;;16.47;69.90;97869.06;10495510;28;20191;-80
2021/05/16 11:40:46;;;;;;;0.90;0.50;;;;;;;16.45;67.45;97874.31;10497671;28;20178;-76
2021/05/16 11:46:06;;;;;;;1.00;0.73;;;;;;;16.39;63.79;97876.94;10503189;28;20182;-80
2021/05/16 11:51:26;;;;;;;1.33;1.23;;;;;;;17.65;64.01;97857.66;10502279;28;20237;-77
2021/05/16 11:56:49;;;;;;;1.10;0.70;;;;;;;17.65;60.63;97841.72;10503737;28;20178;-77
2021/05/16 12:02:08;;;;;;;1.83;1.03;;;;;;;17.65;61.71;97841.72;10502068;28;20564;-76
2021/05/16 12:07:29;;;;;;;2.97;1.10;;;;;;;17.91;59.34;97816.94;10503357;28;20634;-77
2021/05/16 12:12:47;;;;;;;2.00;0.80;;;;;;;18.44;54.77;97815.63;10502640;28;20206;-76
2021/05/16 12:18:20;;;;;;;3.00;0.90;;;;;;;18.00;60.72;97812.03;10501697;28;20206;-78
2021/05/16 12:23:49;;;;;;;1.57;0.60;;;;;;;18.27;57.06;97809.03;10502724;28;20196;-77
2021/05/16 12:29:13;;;;;;;1.20;0.90;;;;;;;18.70;54.58;97797.03;10501897;28;20226;-77
2021/05/16 12:34:33;;;;;;;0.90;0.60;;;;;;;17.81;52.18;97798.78;10501080;28;20183;-76
2021/05/16 12:39:53;;;;;;;3.10;1.07;;;;;;;18.17;55.17;97798.44;10497807;28;20569;-77
2021/05/16 12:45:33;;;;;;;0.90;0.70;;;;;;;18.11;50.96;97781.63;10460247;28;20179;-76
2021/05/16 12:50:58;;;;;;;0.90;0.50;;;;;;;17.68;52.20;97776.03;10458640;28;20203;-77
2021/05/16 12:56:28;;;;;;;2.80;0.90;;;;;;;17.92;52.77;97768.38;10459098;28;20181;-78
2021/05/16 13:01:49;;;;;;;0.90;0.70;;;;;;;18.73;49.07;97769.00;10458679;28;20627;-77
2021/05/16 13:07:10;;;;;;;1.90;0.70;;;;;;;18.38;51.01;97775.00;10459652;28;20183;-78
2021/05/16 13:12:29;;;;;;;1.20;0.80;;;;;;;18.71;49.98;97777.06;10458774;28;20206;-77
2021/05/16 13:17:49;;;;;;;1.20;0.80;;;;;;;18.68;45.52;97791.94;10458038;28;20194;-77
2021/05/16 13:23:22;;;;;;;1.60;0.60;;;;;;;18.52;46.06;97786.91;10457901;28;20171;-78
2021/05/16 13:28:43;;;;;;;0.90;0.60;;;;;;;18.39;46.96;97763.38;10458471;28;20238;-78
2021/05/16 13:34:03;;;;;;;1.40;0.90;;;;;;;18.70;48.60;97763.59;10467926;28;20199;-76
2021/05/16 13:39:25;;;;;;;0.90;0.50;;;;;;;18.95;52.22;97752.59;10457628;28;20654;-77
2021/05/16 13:44:44;;;;;;;1.13;0.80;;;;;;;19.88;50.07;97755.72;10458198;28;20172;-76
2021/05/16 13:50:05;;;;;;;0.90;0.50;;;;;;;19.31;53.90;97754.84;10456610;28;20214;-76
2021/05/16 13:55:24;;;;;;;0.93;0.60;;;;;;;19.31;53.17;97752.03;10457712;28;20606;-76
2021/05/16 14:00:43;;;;;;;0.97;0.67;;;;;;;18.42;55.67;97754.84;10457320;28;20251;-76
2021/05/16 14:06:02;;;;;;;1.50;0.70;;;;;;;19.49;54.56;97744.16;10455161;28;20179;-77
2021/05/16 14:11:21;;;;;;;0.90;0.70;;;;;;;19.18;48.32;97731.38;10456656;28;20235;-78
2021/05/16 14:16:44;;;;;;;1.10;0.70;;;;;;;18.53;51.37;97732.72;10456708;28;20180;-77
2021/05/16 14:22:03;;;;;;;1.20;0.60;;;;;;;18.83;52.15;97719.47;10456470;28;20206;-78
2021/05/16 14:27:22;;;;;;;1.13;0.60;;;;;;;19.38;49.44;97718.19;10455031;28;20223;-78
2021/05/16 14:32:42;;;;;;;1.10;0.63;;;;;;;18.92;49.95;97706.16;10453708;28;20653;-77
2021/05/16 14:38:02;;;;;;;1.60;0.90;;;;;;;19.65;47.19;97704.53;10456102;28;20282;-78
2021/05/16 14:43:21;;;;;;;0.90;0.70;;;;;;;19.37;48.03;97683.94;10456103;28;20190;-77
2021/05/16 14:48:41;;;;;;;1.50;0.67;;;;;;;19.46;48.27;97672.63;10454572;28;20210;-76
2021/05/16 14:54:03;;;;;;;1.00;0.60;;;;;;;20.92;47.41;97676.28;10454879;28;20187;-78
2021/05/16 14:59:22;;;;;;;1.03;0.60;;;;;;;19.62;49.20;97674.06;10455500;28;20661;-77
2021/05/16 15:04:43;;;;;;;1.30;0.63;;;;;;;19.02;50.27;97679.69;10486226;28;20253;-77
2021/05/16 15:10:03;;;;;;;1.00;0.70;;;;;;;19.11;49.70;97671.22;10529053;28;20241;-78
2021/05/16 15:15:22;;;;;;;0.90;0.60;;;;;;;18.90;49.89;97671.69;10469699;28;20187;-78
2021/05/16 15:20:42;;;;;;;1.20;0.90;;;;;;;18.48;51.48;97674.16;10491950;28;20173;-78
2021/05/16 15:26:01;;;;;;;1.10;0.70;;;;;;;18.30;52.28;97673.66;10545833;28;20178;-77
2021/05/16 15:31:20;;;;;;;5.60;0.73;;;;;;;18.03;51.91;97671.16;10545993;28;20205;-77
2021/05/16 15:36:40;;;;;;;1.83;0.70;;;;;;;17.99;52.33;97665.81;10519117;28;20229;-77
2021/05/16 15:42:04;;;;;;;0.90;0.60;;;;;;;18.43;51.12;97667.25;10494117;28;20220;-77
2021/05/16 15:47:24;;;;;;;4.83;1.07;;;;;;;18.81;57.67;97669.81;10460309;28;20258;-76
2021/05/16 15:52:44;;;;;;;1.53;1.07;;;;;;;19.69;53.23;97659.66;10461687;28;20211;-78
2021/05/16 15:58:03;;;;;;;1.83;0.97;;;;;;;19.45;51.58;97659.19;10469449;28;20243;-78
2021/05/16 16:03:23;;;;;;;0.90;0.70;;;;;;;19.22;54.86;97648.28;10502309;28;20179;-77
2021/05/16 16:08:42;;;;;;;2.70;0.90;;;;;;;18.92;50.05;97658.78;10501327;28;20776;-78
2021/05/16 16:14:03;;;;;;;1.00;0.70;;;;;;;18.43;60.45;97664.47;10502206;28;20210;-78
2021/05/16 16:19:22;;;;;;;1.00;0.77;;;;;;;17.44;59.57;97655.00;10501731;28;20180;-79
2021/05/16 16:24:41;;;;;;;0.90;0.50;;;;;;;17.99;57.37;97654.66;10502663;28;20175;-78
2021/05/16 16:30:00;;;;;;;1.00;0.70;;;;;;;18.75;56.39;97659.84;10500548;28;20218;-80
2021/05/16 16:35:19;;;;;;;1.07;0.70;;;;;;;19.11;55.21;97645.34;10500954;28;20183;-79
2021/05/16 16:40:38;;;;;;;1.10;0.80;;;;;;;18.96;55.87;97653.00;10501701;28;20212;-78
2021/05/16 16:45:57;;;;;;;0.90;0.60;;;;;;;19.32;55.14;97653.19;10502068;28;20179;-79
2021/05/16 16:51:16;;;;;;;0.90;0.50;;;;;;;19.48;53.23;97661.75;10500398;28;20202;-79
2021/05/16 16:56:35;;;;;;;2.07;0.70;;;;;;;19.94;51.52;97675.59;10501623;28;20178;-78
2021/05/16 17:01:54;;;;;;;1.50;0.70;;;;;;;19.49;53.00;97666.06;10499862;28;20197;-78
2021/05/16 17:07:14;;;;;;;1.07;0.93;;;;;;;18.39;55.95;97659.59;10501180;28;20630;-78
2021/05/16 17:12:33;;;;;;;1.00;0.77;;;;;;;17.63;57.74;97651.53;10499839;28;20203;-77
2021/05/16 17:17:52;;;;;;;1.30;1.17;;;;;;;17.16;59.68;97637.03;10499071;28;20174;-77
2021/05/16 17:23:13;;;;;;;1.03;0.67;;;;;;;18.03;57.34;97638.56;10500010;28;20182;-77
2021/05/16 17:28:32;;;;;;;1.00;0.70;;;;;;;17.58;57.73;97635.53;10499706;28;20222;-77
2021/05/16 17:33:50;;;;;;;1.20;0.70;;;;;;;16.82;61.05;97643.94;10498019;28;20210;-78
2021/05/16 17:39:09;;;;;;;1.20;0.70;;;;;;;16.28;61.95;97645.53;10499541;28;20198;-77
2021/05/16 17:44:31;;;;;;;4.30;0.80;;;;;;;15.94;62.97;97646.00;10498122;28;20637;-79
2021/05/16 17:49:52;;;;;;;1.43;0.70;;;;;;;15.78;64.39;97640.06;10497834;28;20228;-79
2021/05/16 17:55:11;;;;;;;1.10;0.70;;;;;;;15.64;65.51;97649.03;10499143;28;20175;-79
2021/05/16 18:00:33;;;;;;;1.20;1.03;;;;;;;15.33;68.49;97652.06;10497755;28;20539;-78
2021/05/16 18:05:52;;;;;;;1.00;0.60;;;;;;;15.17;68.92;97657.09;10497761;28;20179;-79
2021/05/16 18:11:11;;;;;;;1.00;0.80;;;;;;;15.13;69.41;97665.59;10498312;28;20206;-79
2021/05/16 18:16:31;;;;;;;1.67;0.70;;;;;;;15.06;70.12;97658.81;10498397;28;20241;-78
2021/05/16 18:21:50;;;;;;;0.90;0.60;;;;;;;14.82;73.20;97657.91;10497900;28;20524;-78
2021/05/16 18:27:09;;;;;;;1.77;0.70;;;;;;;14.63;74.18;97654.34;10497709;28;20670;-78
2021/05/16 18:32:28;;;;;;;2.40;1.10;;;;;;;14.49;76.07;97651.41;10496232;28;20216;-78
2021/05/16 18:37:47;;;;;;;1.03;0.90;;;;;;;14.61;76.32;97650.53;10497678;28;20195;-79
2021/05/16 18:43:10;;;;;;;1.40;1.13;;;;;;;14.48;80.60;97660.94;10497748;28;20174;-79
2021/05/16 18:48:31;;;;;;;1.70;1.60;;;;;;;14.35;84.54;97657.53;10496222;28;20171;-80
2021/05/16 18:53:50;;;;;;;1.20;0.80;;;;;;;14.14;90.28;97658.38;10495157;28;20234;-81
2021/05/16 18:59:09;;;;;;;1.57;1.10;;;;;;;13.82;96.00;97664.41;10497157;28;20593;-79
2021/05/16 19:04:29;;;;;;;1.30;1.20;;;;;;;13.75;98.42;97661.16;10496030;28;20198;-82
2021/05/16 19:09:49;;;;;;;1.10;0.60;;;;;;;13.56;100.00;97673.31;10495734;28;20635;-78
2021/05/16 19:15:10;;;;;;;1.30;0.83;;;;;;;13.54;100.00;97668.25;10497086;28;20178;-80
2021/05/16 19:20:30;;;;;;;1.70;0.90;;;;;;;13.51;100.00;97659.31;10495564;28;20210;-80
2021/05/16 19:25:49;;;;;;;0.97;0.67;;;;;;;13.25;100.00;97669.00;10496782;28;20170;-77
2021/05/16 19:31:08;;;;;;;0.90;0.70;;;;;;;13.15;100.00;97661.88;10496549;28;20210;-78
2021/05/16 19:36:27;;;;;;;1.40;0.87;;;;;;;12.96;100.00;97685.03;10495276;28;20278;-78
2021/05/16 19:41:54;;;;;;;0.90;0.50;;;;;;;12.32;100.00;97771.13;10496577;28;20175;-78
2021/05/16 19:47:17;;;;;;;1.53;0.77;;;;;;;11.49;100.00;97737.84;10494062;28;20171;-78
2021/05/16 19:52:36;;;;;;;0.80;0.50;;;;;;;11.21;100.00;97755.16;10495789;28;20567;-77
2021/05/16 19:57:55;;;;;;;1.20;0.80;;;;;;;10.51;100.00;97746.00;10496230;28;20614;-78
2021/05/16 20:03:14;;;;;;;1.00;0.60;;;;;;;10.28;100.00;97741.88;10498660;28;20534;-80
2021/05/16 20:08:34;;;;;;;0.80;0.40;;;;;;;10.35;100.00;97748.75;10503517;28;20179;-77
2021/05/16 20:13:53;;;;;;;0.80;0.50;;;;;;;10.40;100.00;97744.72;10503296;28;20644;-77
2021/05/16 20:19:12;;;;;;;0.80;0.40;;;;;;;10.57;100.00;97751.75;10507127;28;20176;-79
2021/05/16 20:24:32;;;;;;;1.10;0.83;;;;;;;10.73;100.00;97741.53;10507097;28;20178;-78
2021/05/16 20:29:58;;;;;;;0.80;0.40;;;;;;;10.76;100.00;97734.38;10504986;28;20253;-78
2021/05/16 20:35:23;;;;;;;0.90;0.60;;;;;;;10.98;100.00;97736.16;10501103;28;20226;-80
2021/05/16 20:40:46;;;;;;;0.90;0.50;;;;;;;11.05;100.00;97743.41;10502535;28;20179;-79
2021/05/16 20:46:05;;;;;;;3.37;0.70;;;;;;;11.17;100.00;97738.75;10501698;28;20585;-79
2021/05/16 20:51:24;;;;;;;1.10;0.60;;;;;;;11.27;100.00;97731.41;10501147;28;20230;-79
2021/05/16 20:56:43;;;;;;;0.93;0.60;;;;;;;11.15;100.00;97749.41;10501671;28;20249;-79
2021/05/16 21:02:02;;;;;;;9.33;1.13;;;;;;;11.14;100.00;97758.88;10499107;28;20639;-79
2021/05/16 21:07:21;;;;;;;0.93;0.60;;;;;;;11.37;100.00;97753.13;10501205;28;20574;-78
2021/05/16 21:12:41;;;;;;;1.10;0.80;;;;;;;11.28;100.00;97752.97;10500239;28;20203;-78
2021/05/16 21:18:00;;;;;;;1.43;0.70;;;;;;;10.96;100.00;97748.75;10499853;28;20249;-79
2021/05/16 21:23:19;;;;;;;1.00;0.80;;;;;;;10.87;100.00;97754.91;10500763;28;20605;-80
2021/05/16 21:28:38;;;;;;;2.60;0.93;;;;;;;11.11;100.00;97762.47;10500013;28;20222;-78
2021/05/16 21:33:57;;;;;;;1.00;0.83;;;;;;;11.04;100.00;97758.38;10498167;28;20198;-80
2021/05/16 21:39:16;;;;;;;1.10;0.70;;;;;;;11.15;100.00;97776.94;10498912;28;20171;-78
2021/05/16 21:44:35;;;;;;;2.57;0.70;;;;;;;11.07;100.00;97791.31;10499711;28;20257;-78
2021/05/16 21:49:54;;;;;;;1.20;0.87;;;;;;;10.92;100.00;97772.88;10498095;28;20211;-78
2021/05/16 21:55:16;;;;;;;2.17;0.70;;;;;;;11.10;100.00;97779.44;10499201;28;20214;-78
2021/05/16 22:00:35;;;;;;;22.77;2.20;;;;;;;11.05;100.00;97790.19;10498911;28;20175;-78
2021/05/16 22:05:55;;;;;;;1.70;0.90;;;;;;;10.93;100.00;97788.94;10497851;28;20163;-78
2021/05/16 22:11:14;;;;;;;0.90;0.60;;;;;;;10.89;100.00;97793.75;10497446;28;20210;-80
2021/05/16 22:16:33;;;;;;;1.10;0.60;;;;;;;10.79;100.00;97807.75;10498621;28;20262;-79
2021/05/16 22:21:53;;;;;;;1.00;0.80;;;;;;;10.71;100.00;97818.19;10498350;28;20174;-79
2021/05/16 22:27:11;;;;;;;1.20;0.90;;;;;;;10.54;100.00;97838.63;10495974;28;20727;-78
2021/05/16 22:32:30;;;;;;;1.00;0.63;;;;;;;10.50;100.00;97839.91;10496450;28;20214;-78
2021/05/16 22:37:50;;;;;;;0.90;0.73;;;;;;;10.33;100.00;97849.34;10497902;28;20183;-79
2021/05/16 22:43:09;;;;;;;2.60;0.90;;;;;;;10.32;100.00;97836.78;10497909;28;20174;-78
2021/05/16 22:48:28;;;;;;;1.63;0.67;;;;;;;10.36;100.00;97840.25;10497303;28;20171;-78
2021/05/16 22:53:47;;;;;;;0.90;0.53;;;;;;;10.43;100.00;97840.09;10497141;28;20202;-79
2021/05/16 22:59:06;;;;;;;1.50;0.70;;;;;;;10.47;100.00;97838.81;10497454;28;20183;-79
2021/05/16 23:04:25;;;;;;;0.90;0.60;;;;;;;10.47;100.00;97838.81;10495064;28;20182;-79
2021/05/16 23:09:45;;;;;;;0.97;0.70;;;;;;;10.49;100.00;97822.66;10497109;28;20202;-78
2021/05/16 23:15:05;;;;;;;0.90;0.70;;;;;;;10.46;100.00;97815.25;10497174;28;20170;-79
2021/05/16 23:20:26;;;;;;;0.90;0.60;;;;;;;10.57;100.00;97810.28;10495615;28;20614;-78
2021/05/16 23:25:45;;;;;;;1.00;0.60;;;;;;;10.66;100.00;97804.16;10496920;28;20171;-78
2021/05/16 23:31:06;;;;;;;0.90;0.60;;;;;;;10.70;100.00;97808.38;10496539;28;20593;-78
2021/05/16 23:36:25;;;;;;;1.00;0.70;;;;;;;10.66;100.00;97807.69;10495238;28;20174;-80
2021/05/16 23:41:45;;;;;;;0.90;0.60;;;;;;;10.53;100.00;97812.34;10503598;28;20256;-79
2021/05/16 23:47:05;;;;;;;4.70;1.00;;;;;;;10.53;100.00;97804.09;10503154;28;20179;-80
2021/05/16 23:52:24;;;;;;;1.00;0.80;;;;;;;10.54;100.00;97805.63;10503775;28;20203;-78
2021/05/16 23:57:44;;;;;;;1.00;0.80;;;;;;;10.61;100.00;97799.97;10504127;28;20637;-79
